createdAt,value
2022-11-09T00:01:40.429Z,1.90
2022-11-09T00:04:07.847Z,1.88
2022-11-09T00:06:35.534Z,2.50
2022-11-09T00:09:07.706Z,2.38
2022-11-09T00:11:35.119Z,1.90
2022-11-09T00:14:01.480Z,1.77
2022-11-09T00:16:27.956Z,2.00
2022-11-09T00:18:55.854Z,2.20
2022-11-09T00:21:24.463Z,1.73
2022-11-09T00:23:51.419Z,2.15
2022-11-09T00:26:19.560Z,1.65
2022-11-09T00:28:46.116Z,1.60
2022-11-09T00:31:18.809Z,2.00
2022-11-09T00:33:52.856Z,2.08
2022-11-09T00:36:20.933Z,1.85
2022-11-09T00:38:52.954Z,2.13
2022-11-09T00:41:19.686Z,1.83
2022-11-09T00:43:46.629Z,1.48
2022-11-09T00:46:13.502Z,2.05
2022-11-09T00:48:40.117Z,1.65
2022-11-09T00:51:09.876Z,1.90
2022-11-09T00:53:36.263Z,1.80
2022-11-09T00:56:13.945Z,1.92
2022-11-09T00:58:41.027Z,1.83
2022-11-09T01:01:11.210Z,1.80
2022-11-09T01:03:38.384Z,2.30
2022-11-09T01:06:05.753Z,1.90
2022-11-09T01:08:35.688Z,1.73
2022-11-09T01:11:09.738Z,2.00
2022-11-09T01:13:37.475Z,1.60
2022-11-09T01:16:12.720Z,1.90
2022-11-09T01:18:40.301Z,2.13
2022-11-09T01:21:09.493Z,2.10
2022-11-09T01:23:36.874Z,1.95
2022-11-09T01:26:06.225Z,1.98
2022-11-09T01:28:32.764Z,1.90
2022-11-09T01:31:07.530Z,1.70
2022-11-09T01:33:34.685Z,1.92
2022-11-09T01:36:06.823Z,1.77
2022-11-09T01:38:33.633Z,1.70
2022-11-09T01:40:59.974Z,2.05
2022-11-09T01:43:26.312Z,1.90
2022-11-09T01:46:12.721Z,1.95
2022-11-09T01:48:46.210Z,1.98
2022-11-09T01:51:41.660Z,1.92
2022-11-09T01:54:31.721Z,1.88
2022-11-09T01:57:04.050Z,1.90
2022-11-09T01:59:36.442Z,2.05
2022-11-09T02:02:04.629Z,1.95
2022-11-09T02:04:38.285Z,1.67
2022-11-09T02:07:06.080Z,1.65
2022-11-09T02:09:49.294Z,1.60
2022-11-09T02:12:18.086Z,2.10
2022-11-09T02:14:47.190Z,2.00
2022-11-09T02:17:13.710Z,1.55
2022-11-09T02:19:40.106Z,1.60
2022-11-09T02:22:06.764Z,1.45
2022-11-09T02:24:33.761Z,2.00
2022-11-09T02:27:00.822Z,1.50
2022-11-09T02:29:33.446Z,1.65
2022-11-09T02:32:03.547Z,1.48
2022-11-09T02:34:30.127Z,1.85
2022-11-09T02:36:56.539Z,1.58
2022-11-09T02:39:26.230Z,1.52
2022-11-09T02:42:02.746Z,1.52
2022-11-09T02:44:32.664Z,1.40
2022-11-09T02:46:59.133Z,1.35
2022-11-09T02:49:25.492Z,1.67
2022-11-09T02:51:51.818Z,1.88
2022-11-09T02:54:18.310Z,1.73
2022-11-09T02:56:44.686Z,1.83
2022-11-09T02:59:11.025Z,1.45
2022-11-09T03:01:37.514Z,1.40
2022-11-09T03:04:03.971Z,1.60
2022-11-09T03:06:36.262Z,1.60
2022-11-09T03:09:11.758Z,1.52
2022-11-09T03:11:39.798Z,1.30
2022-11-09T03:14:06.874Z,1.20
2022-11-09T03:16:33.323Z,1.58
2022-11-09T03:18:59.905Z,1.70
2022-11-09T03:21:26.273Z,1.33
2022-11-09T03:23:54.021Z,1.40
2022-11-09T03:26:21.186Z,1.42
2022-11-09T03:28:47.819Z,1.42
2022-11-09T03:31:23.109Z,1.85
2022-11-09T03:33:49.504Z,1.48
2022-11-09T03:36:16.069Z,1.55
2022-11-09T03:38:42.397Z,1.23
2022-11-09T03:41:08.737Z,1.50
2022-11-09T03:43:35.093Z,1.33
2022-11-09T03:46:01.454Z,1.10
2022-11-09T03:48:27.876Z,1.25
2022-11-09T03:50:54.219Z,1.10
2022-11-09T03:53:20.876Z,1.15
2022-11-09T03:55:47.554Z,1.50
2022-11-09T03:58:13.932Z,1.55
2022-11-09T04:00:40.473Z,1.27
2022-11-09T04:03:07.165Z,1.50
2022-11-09T04:05:33.537Z,1.27
2022-11-09T04:08:00.002Z,1.35
2022-11-09T04:10:26.703Z,1.15
2022-11-09T04:12:53.518Z,1.30
2022-11-09T04:15:20.150Z,1.10
2022-11-09T04:17:54.941Z,1.00
2022-11-09T04:20:21.300Z,1.30
2022-11-09T04:23:04.575Z,1.08
2022-11-09T04:25:36.299Z,1.33
2022-11-09T04:28:04.244Z,1.05
2022-11-09T04:30:33.039Z,1.05
2022-11-09T04:33:00.758Z,1.08
2022-11-09T04:35:28.575Z,1.20
2022-11-09T04:38:09.753Z,1.00
2022-11-09T04:40:36.439Z,1.20
2022-11-09T04:43:04.762Z,1.15
2022-11-09T04:45:33.854Z,1.02
2022-11-09T04:48:02.118Z,1.00
2022-11-09T04:50:29.545Z,0.90
2022-11-09T04:53:13.476Z,0.90
2022-11-09T04:55:40.432Z,0.90
2022-11-09T04:58:08.048Z,1.05
2022-11-09T05:00:35.072Z,1.10
2022-11-09T05:03:03.120Z,1.10
2022-11-09T05:05:30.169Z,1.30
2022-11-09T05:07:56.576Z,0.90
2022-11-09T05:10:22.953Z,0.90
2022-11-09T05:12:49.374Z,0.90
2022-11-09T05:15:15.851Z,1.00
2022-11-09T05:17:42.214Z,1.10
2022-11-09T05:20:09.133Z,0.98
2022-11-09T05:22:59.001Z,1.30
2022-11-09T05:25:25.448Z,1.00
2022-11-09T05:27:52.594Z,1.02
2022-11-09T05:30:19.155Z,1.20
2022-11-09T05:32:45.498Z,0.93
2022-11-09T05:35:12.157Z,0.95
2022-11-09T05:37:39.568Z,1.02
2022-11-09T05:40:08.358Z,0.90
2022-11-09T05:42:38.383Z,1.15
2022-11-09T05:45:35.483Z,1.27
2022-11-09T05:47:51.983Z,1.10
2022-11-09T05:50:18.639Z,1.00
2022-11-09T05:52:45.087Z,1.50
2022-11-09T05:55:11.545Z,1.10
2022-11-09T05:57:37.951Z,1.15
2022-11-09T06:00:10.709Z,1.13
2022-11-09T06:02:37.508Z,1.10
2022-11-09T06:05:04.090Z,1.20
2022-11-09T06:07:30.515Z,1.38
2022-11-09T06:09:56.877Z,1.15
2022-11-09T06:12:23.350Z,1.20
2022-11-09T06:14:49.712Z,1.10
2022-11-09T06:17:16.214Z,1.10
2022-11-09T06:19:42.590Z,1.27
2022-11-09T06:22:09.260Z,1.17
2022-11-09T06:24:35.704Z,1.33
2022-11-09T06:27:02.158Z,1.20
2022-11-09T06:29:28.491Z,1.08
2022-11-09T06:31:55.326Z,1.00
2022-11-09T06:34:21.781Z,1.30
2022-11-09T06:36:48.124Z,1.05
2022-11-09T06:39:14.471Z,1.40
2022-11-09T06:41:44.694Z,1.15
2022-11-09T06:44:13.703Z,1.10
2022-11-09T06:46:40.124Z,1.10
2022-11-09T06:49:06.638Z,1.00
2022-11-09T06:51:33.028Z,1.13
2022-11-09T06:53:59.396Z,1.10
2022-11-09T06:56:25.871Z,1.25
2022-11-09T06:58:52.259Z,1.02
2022-11-09T07:01:22.824Z,1.00
2022-11-09T07:03:49.235Z,1.05
2022-11-09T07:06:15.690Z,1.17
2022-11-09T07:08:42.132Z,1.00
2022-11-09T07:11:12.410Z,1.00
2022-11-09T07:13:39.851Z,1.17
2022-11-09T07:16:07.174Z,1.55
2022-11-09T07:18:33.934Z,0.85
2022-11-09T07:21:00.353Z,1.13
2022-11-09T07:23:26.770Z,1.02
2022-11-09T07:25:53.370Z,1.00
2022-11-09T07:28:19.800Z,1.02
2022-11-09T07:30:46.230Z,1.30
2022-11-09T07:33:22.582Z,1.08
2022-11-09T07:35:49.425Z,1.20
2022-11-09T07:38:16.062Z,1.13
2022-11-09T07:40:43.844Z,1.02
2022-11-09T07:43:11.845Z,1.15
2022-11-09T07:45:38.632Z,1.33
2022-11-09T07:48:08.183Z,1.20
2022-11-09T07:50:35.675Z,1.45
2022-11-09T07:53:02.970Z,1.00
2022-11-09T07:55:30.199Z,1.10
2022-11-09T07:58:04.921Z,0.98
2022-11-09T08:00:33.125Z,1.20
2022-11-09T08:02:59.776Z,1.05
2022-11-09T08:05:26.675Z,1.35
2022-11-09T08:08:02.078Z,1.30
2022-11-09T08:10:30.133Z,1.38
2022-11-09T08:13:01.260Z,1.05
2022-11-09T08:15:28.654Z,1.15
2022-11-09T08:17:59.367Z,1.30
2022-11-09T08:20:25.783Z,1.40
2022-11-09T08:22:52.121Z,1.15
2022-11-09T08:25:18.658Z,1.20
2022-11-09T08:27:45.000Z,1.40
2022-11-09T08:30:17.100Z,1.20
2022-11-09T08:32:44.927Z,1.85
2022-11-09T08:35:17.362Z,1.00
2022-11-09T08:37:46.783Z,1.40
2022-11-09T08:40:15.974Z,1.00
2022-11-09T08:42:42.494Z,1.05
2022-11-09T08:45:10.091Z,1.58
2022-11-09T08:47:36.728Z,1.55
2022-11-09T08:50:04.462Z,0.98
2022-11-09T08:52:31.017Z,1.23
2022-11-09T08:54:57.392Z,0.93
2022-11-09T08:57:24.485Z,1.35
2022-11-09T08:59:50.873Z,1.10
2022-11-09T09:02:17.379Z,1.23
2022-11-09T09:04:43.867Z,1.05
2022-11-09T09:07:10.369Z,1.25
2022-11-09T09:09:38.132Z,1.33
2022-11-09T09:12:06.814Z,1.05
2022-11-09T09:14:33.673Z,1.02
2022-11-09T09:17:00.923Z,0.95
2022-11-09T09:19:28.178Z,1.30
2022-11-09T09:21:54.637Z,1.00
2022-11-09T09:24:21.250Z,1.00
2022-11-09T09:26:47.654Z,0.90
2022-11-09T09:29:14.262Z,1.10
2022-11-09T09:31:41.168Z,0.90
2022-11-09T09:34:07.930Z,0.80
2022-11-09T09:36:35.484Z,0.88
2022-11-09T09:39:02.102Z,0.75
2022-11-09T09:41:34.565Z,0.93
2022-11-09T09:44:36.910Z,0.70
2022-11-09T09:47:06.382Z,0.80
2022-11-09T09:49:36.908Z,0.80
2022-11-09T09:52:29.320Z,0.98
2022-11-09T09:55:24.332Z,0.73
2022-11-09T09:57:56.986Z,0.80
2022-11-09T10:00:26.202Z,0.75
2022-11-09T10:02:53.312Z,0.68
2022-11-09T10:05:28.016Z,0.90
2022-11-09T10:08:03.694Z,0.75
2022-11-09T10:10:48.175Z,0.70
2022-11-09T10:13:29.869Z,1.70
2022-11-09T10:16:09.955Z,0.75
2022-11-09T10:19:13.900Z,0.93
2022-11-09T10:22:11.104Z,0.90
2022-11-09T10:25:20.829Z,0.90
2022-11-09T10:27:49.785Z,0.80
2022-11-09T10:30:19.135Z,0.98
2022-11-09T10:32:50.270Z,1.08
2022-11-09T10:35:29.053Z,0.82
2022-11-09T10:37:55.471Z,1.02
2022-11-09T10:40:25.242Z,0.70
2022-11-09T10:43:00.406Z,0.90
2022-11-09T10:47:58.836Z,0.85
2022-11-09T10:50:25.153Z,0.68
2022-11-09T10:52:51.718Z,0.70
2022-11-09T10:55:27.013Z,0.90
2022-11-09T10:57:57.567Z,0.90
2022-11-09T11:00:24.464Z,0.80
2022-11-09T11:02:53.092Z,1.10
2022-11-09T11:05:19.433Z,0.60
2022-11-09T11:07:46.450Z,1.05
2022-11-09T11:10:15.872Z,0.90
2022-11-09T11:12:43.629Z,0.98
2022-11-09T11:15:24.800Z,0.90
2022-11-09T11:18:00.195Z,1.27
2022-11-09T11:20:32.185Z,1.00
2022-11-09T11:23:12.775Z,0.80
2022-11-09T11:26:25.261Z,1.05
2022-11-09T11:29:10.907Z,0.93
2022-11-09T11:31:37.298Z,1.02
2022-11-09T11:34:16.387Z,1.30
2022-11-09T11:37:05.143Z,1.23
2022-11-09T11:39:58.280Z,1.05
2022-11-09T11:42:32.673Z,1.23
2022-11-09T11:48:04.072Z,0.88
2022-11-09T11:50:57.173Z,1.05
2022-11-09T11:54:14.089Z,1.05
2022-11-09T11:57:01.954Z,0.70
2022-11-09T11:59:53.252Z,1.13
2022-11-09T12:02:41.190Z,1.10
2022-11-09T12:05:35.500Z,0.93
2022-11-09T12:08:22.037Z,0.77
2022-11-09T12:11:11.829Z,1.10
2022-11-09T12:13:44.571Z,1.33
2022-11-09T12:16:39.718Z,0.80
2022-11-09T12:19:26.640Z,0.98
2022-11-09T12:22:29.157Z,1.00
2022-11-09T12:25:22.243Z,1.10
2022-11-09T12:28:12.391Z,0.80
2022-11-09T12:31:09.800Z,1.20
2022-11-09T12:33:53.490Z,1.00
2022-11-09T12:36:26.676Z,0.90
2022-11-09T12:38:55.931Z,0.98
2022-11-09T12:41:27.549Z,1.20
2022-11-09T12:44:17.136Z,1.05
2022-11-09T12:46:50.905Z,1.10
2022-11-09T12:49:35.491Z,1.30
2022-11-09T12:52:02.921Z,1.42
2022-11-09T12:54:29.434Z,1.08
2022-11-09T12:56:59.925Z,1.10
2022-11-09T12:59:29.027Z,1.30
2022-11-09T13:01:58.410Z,0.90
2022-11-09T13:04:25.758Z,1.00
2022-11-09T13:07:15.380Z,1.45
2022-11-09T13:09:45.228Z,1.10
2022-11-09T13:12:19.974Z,1.48
2022-11-09T13:14:46.788Z,1.20
2022-11-09T13:17:28.484Z,1.10
2022-11-09T13:19:56.731Z,1.20
2022-11-09T13:22:23.058Z,1.02
2022-11-09T13:24:55.619Z,0.90
2022-11-09T13:27:47.942Z,0.95
2022-11-09T13:30:23.575Z,1.17
2022-11-09T13:33:09.484Z,1.40
2022-11-09T13:35:41.595Z,0.90
2022-11-09T13:38:16.470Z,1.10
2022-11-09T13:40:44.195Z,0.90
2022-11-09T13:43:10.498Z,1.00
2022-11-09T13:45:37.046Z,1.10
2022-11-09T13:48:05.466Z,1.08
2022-11-09T13:50:34.334Z,1.30
2022-11-09T13:53:01.921Z,1.33
2022-11-09T13:55:42.275Z,1.05
2022-11-09T13:58:25.639Z,0.98
2022-11-09T14:00:52.031Z,1.42
2022-11-09T14:03:18.616Z,1.30
2022-11-09T14:05:48.595Z,0.80
2022-11-09T14:08:27.784Z,1.20
2022-11-09T14:11:18.963Z,1.25
2022-11-09T14:13:56.871Z,1.05
2022-11-09T14:16:50.950Z,1.00
2022-11-09T14:19:30.650Z,1.15
2022-11-09T14:21:57.051Z,1.38
2022-11-09T14:24:29.569Z,1.13
2022-11-09T14:27:17.648Z,0.88
2022-11-09T14:29:53.246Z,1.17
2022-11-09T14:32:35.451Z,1.13
2022-11-09T14:35:33.965Z,0.80
2022-11-09T14:38:13.927Z,1.70
2022-11-09T14:40:45.757Z,0.85
2022-11-09T14:43:43.011Z,0.90
2022-11-09T14:46:21.512Z,1.23
2022-11-09T14:48:57.950Z,1.20
2022-11-09T14:51:31.925Z,1.13
2022-11-09T14:54:00.343Z,1.35
2022-11-09T14:56:27.175Z,1.00
2022-11-09T14:58:55.054Z,1.00
2022-11-09T15:01:26.313Z,0.93
2022-11-09T15:04:22.836Z,1.33
2022-11-09T15:06:56.029Z,1.48
2022-11-09T15:09:31.278Z,0.90
2022-11-09T15:14:32.099Z,0.88
2022-11-09T15:17:05.932Z,0.80
2022-11-09T15:19:54.549Z,1.63
2022-11-09T15:22:42.734Z,1.00
2022-11-09T15:25:26.385Z,1.10
2022-11-09T15:28:14.097Z,1.08
2022-11-09T15:30:45.651Z,1.42
2022-11-09T15:33:18.999Z,0.90
2022-11-09T15:36:20.781Z,1.02
2022-11-09T15:38:56.320Z,0.90
2022-11-09T15:41:24.395Z,1.33
2022-11-09T15:43:50.787Z,1.20
2022-11-09T15:46:26.596Z,1.40
2022-11-09T15:48:53.012Z,1.00
2022-11-09T15:51:19.947Z,1.30
2022-11-09T15:53:46.359Z,1.02
2022-11-09T15:56:18.736Z,0.75
2022-11-09T15:58:46.993Z,1.20
2022-11-09T16:01:13.420Z,1.52
2022-11-09T16:03:39.814Z,1.25
2022-11-09T16:06:09.966Z,1.20
2022-11-09T16:08:36.334Z,1.15
2022-11-09T16:11:04.968Z,1.08
2022-11-09T16:13:31.490Z,1.20
2022-11-09T16:16:03.348Z,1.08
2022-11-09T16:18:29.927Z,1.42
2022-11-09T16:20:56.598Z,3.70
2022-11-09T16:23:23.031Z,1.83
2022-11-09T16:25:49.557Z,1.52
2022-11-09T16:28:18.873Z,1.10
2022-11-09T16:30:46.840Z,1.67
2022-11-09T16:33:13.954Z,1.20
2022-11-09T16:35:40.533Z,1.92
2022-11-09T16:38:07.087Z,5.85
2022-11-09T16:40:33.580Z,2.17
2022-11-09T16:43:00.407Z,1.73
2022-11-09T16:45:33.018Z,1.67
2022-11-09T16:48:03.847Z,1.52
2022-11-09T16:50:30.496Z,1.40
2022-11-09T16:52:56.876Z,1.40
2022-11-09T16:55:23.421Z,1.30
2022-11-09T16:57:49.810Z,1.38
2022-11-09T17:00:18.463Z,1.30
2022-11-09T17:02:44.978Z,1.50
2022-11-09T17:05:11.441Z,1.75
2022-11-09T17:07:42.923Z,1.70
2022-11-09T17:10:10.984Z,2.47
2022-11-09T17:12:37.427Z,11.07
2022-11-09T17:15:04.167Z,12.40
2022-11-09T17:17:30.603Z,5.35
2022-11-09T17:19:56.949Z,3.47
2022-11-09T17:22:23.537Z,3.05
2022-11-09T17:24:49.932Z,1.40
2022-11-09T17:27:16.633Z,2.30
2022-11-09T17:29:43.014Z,2.50
2022-11-09T17:32:09.869Z,2.00
2022-11-09T17:34:36.326Z,1.73
2022-11-09T17:37:05.255Z,1.70
2022-11-09T17:39:32.745Z,2.00
2022-11-09T17:41:59.527Z,1.40
2022-11-09T17:44:25.916Z,1.20
2022-11-09T17:46:52.621Z,1.42
2022-11-09T17:49:18.991Z,1.58
2022-11-09T17:51:45.444Z,1.30
2022-11-09T17:54:12.090Z,1.42
2022-11-09T17:56:38.549Z,2.00
2022-11-09T17:59:05.496Z,1.90
2022-11-09T18:01:37.779Z,1.45
2022-11-09T18:04:08.980Z,1.95
2022-11-09T18:06:35.635Z,1.92
2022-11-09T18:11:48.761Z,1.77
2022-11-09T18:14:15.977Z,1.83
2022-11-09T18:16:42.531Z,1.58
2022-11-09T18:19:09.013Z,1.58
2022-11-09T18:21:35.488Z,1.52
2022-11-09T18:24:02.243Z,1.83
2022-11-09T18:26:29.204Z,1.45
2022-11-09T18:28:56.853Z,1.88
2022-11-09T18:31:23.525Z,1.63
2022-11-09T18:33:50.810Z,1.80
2022-11-09T18:36:20.991Z,1.58
2022-11-09T18:38:47.706Z,1.33
2022-11-09T18:41:20.098Z,1.50
2022-11-09T18:43:47.424Z,1.75
2022-11-09T18:46:16.277Z,1.40
2022-11-09T18:48:43.114Z,1.45
2022-11-09T18:51:10.841Z,1.35
2022-11-09T18:53:39.885Z,1.70
2022-11-09T18:56:12.018Z,1.45
2022-11-09T18:58:38.662Z,1.38
2022-11-09T19:01:07.011Z,1.58
2022-11-09T19:03:34.220Z,1.90
2022-11-09T19:06:06.201Z,1.40
2022-11-09T19:08:51.415Z,1.60
2022-11-09T19:11:17.954Z,1.50
2022-11-09T19:13:44.453Z,1.50
2022-11-09T19:16:13.145Z,1.58
2022-11-09T19:18:39.694Z,1.38
2022-11-09T19:21:26.994Z,1.52
2022-11-09T19:23:53.818Z,1.98
2022-11-09T19:26:21.941Z,1.30
2022-11-09T19:28:48.518Z,1.55
2022-11-09T19:31:16.563Z,1.73
2022-11-09T19:33:43.046Z,1.52
2022-11-09T19:38:57.457Z,2.00
2022-11-09T19:41:25.192Z,1.60
2022-11-09T19:43:54.351Z,1.15
2022-11-09T19:46:20.884Z,1.70
2022-11-09T19:48:48.167Z,1.30
2022-11-09T19:51:16.541Z,1.40
2022-11-09T19:53:56.698Z,1.20
2022-11-09T19:56:25.585Z,1.25
2022-11-09T19:58:55.723Z,1.30
2022-11-09T20:01:22.883Z,1.77
2022-11-09T20:03:50.888Z,1.45
2022-11-09T20:06:18.343Z,1.52
2022-11-09T20:08:44.949Z,1.45
2022-11-09T20:11:36.840Z,1.52
2022-11-09T20:14:04.573Z,1.48
2022-11-09T20:16:32.318Z,1.50
2022-11-09T20:19:00.171Z,1.13
2022-11-09T20:21:26.662Z,1.88
2022-11-09T20:23:53.645Z,1.30
2022-11-09T20:26:20.284Z,1.73
2022-11-09T20:28:46.704Z,1.40
2022-11-09T20:31:21.535Z,1.30
2022-11-09T20:33:48.939Z,1.35
2022-11-09T20:36:16.217Z,1.60
2022-11-09T20:38:42.633Z,1.30
2022-11-09T20:41:11.207Z,1.23
2022-11-09T20:43:38.317Z,1.13
2022-11-09T20:46:08.862Z,1.30
2022-11-09T20:48:53.457Z,1.30
2022-11-09T20:51:21.647Z,1.88
2022-11-09T20:53:49.617Z,1.45
2022-11-09T20:56:17.011Z,1.45
2022-11-09T20:58:43.421Z,1.10
2022-11-09T21:01:12.898Z,1.70
2022-11-09T21:03:39.469Z,1.48
2022-11-09T21:06:07.177Z,1.75
2022-11-09T21:08:34.163Z,1.05
2022-11-09T21:11:01.825Z,1.75
2022-11-09T21:13:28.799Z,1.17
2022-11-09T21:15:55.461Z,1.23
2022-11-09T21:18:22.451Z,1.30
2022-11-09T21:20:49.276Z,1.30
2022-11-09T21:23:15.692Z,1.20
2022-11-09T21:26:02.338Z,1.38
2022-11-09T21:28:47.933Z,1.58
2022-11-09T21:33:40.990Z,1.40
2022-11-09T21:36:09.465Z,1.60
2022-11-09T21:38:36.829Z,1.33
2022-11-09T21:41:23.911Z,1.50
2022-11-09T21:43:54.300Z,1.10
2022-11-09T21:46:21.490Z,1.20
2022-11-09T21:48:48.328Z,1.27
2022-11-09T21:51:14.828Z,1.50
2022-11-09T21:53:41.195Z,1.50
2022-11-09T21:56:08.193Z,1.70
2022-11-09T21:58:34.613Z,1.40
2022-11-09T22:01:05.713Z,1.30
2022-11-09T22:03:33.023Z,1.70
2022-11-09T22:05:59.721Z,1.50
2022-11-09T22:08:26.200Z,1.38
2022-11-09T22:10:52.648Z,1.52
2022-11-09T22:13:37.686Z,1.63
2022-11-09T22:16:07.244Z,1.73
2022-11-09T22:18:53.950Z,1.35
2022-11-09T22:21:22.054Z,1.65
2022-11-09T22:23:49.938Z,1.38
2022-11-09T22:26:16.573Z,1.38
2022-11-09T22:28:49.135Z,1.50
2022-11-09T22:31:15.537Z,1.50
2022-11-09T22:33:41.984Z,1.48
2022-11-09T22:36:23.211Z,1.50
2022-11-09T22:38:50.525Z,1.63
2022-11-09T22:41:17.428Z,1.17
2022-11-09T22:43:45.453Z,1.40
2022-11-09T22:46:14.009Z,1.40
2022-11-09T22:48:42.227Z,1.50
2022-11-09T22:51:09.858Z,1.33
2022-11-09T22:53:36.291Z,2.10
2022-11-09T22:56:03.917Z,1.60
2022-11-09T22:58:30.904Z,1.50
2022-11-09T23:01:07.192Z,1.50
2022-11-09T23:03:34.570Z,1.45
2022-11-09T23:06:07.575Z,1.38
2022-11-09T23:08:39.384Z,1.30
2022-11-09T23:11:11.183Z,1.58
2022-11-09T23:13:37.778Z,1.92
2022-11-09T23:16:07.540Z,1.55
2022-11-09T23:18:52.879Z,1.67
2022-11-09T23:21:31.043Z,1.20
2022-11-09T23:24:00.107Z,1.27
2022-11-09T23:26:27.506Z,1.38
2022-11-09T23:28:54.491Z,1.30
2022-11-09T23:31:25.001Z,1.45
2022-11-09T23:33:54.203Z,1.90
2022-11-09T23:36:22.190Z,1.52
2022-11-09T23:38:48.843Z,1.60
2022-11-09T23:41:15.717Z,1.83
2022-11-09T23:43:47.651Z,1.35
2022-11-09T23:46:15.718Z,1.45
2022-11-09T23:48:42.522Z,1.45
2022-11-09T23:51:09.665Z,1.45
2022-11-09T23:53:36.865Z,1.40
2022-11-09T23:56:06.443Z,1.38
2022-11-09T23:58:33.103Z,1.73
